sensor_id;sensor_type;location;lat;lon;timestamp;temperature;humidity
66708;DHT22;53622;0.000;0.000;2024-01-16T00:00:02;19.40;46.80
66708;DHT22;53622;0.000;0.000;2024-01-16T00:02:33;19.40;45.90
66708;DHT22;53622;0.000;0.000;2024-01-16T00:05:02;19.30;46.50
66708;DHT22;53622;0.000;0.000;2024-01-16T00:07:31;19.30;46.50
66708;DHT22;53622;0.000;0.000;2024-01-16T00:10:03;19.30;46.60
66708;DHT22;53622;0.000;0.000;2024-01-16T00:12:32;19.30;47.00
66708;DHT22;53622;0.000;0.000;2024-01-16T00:15:01;19.20;46.70
66708;DHT22;53622;0.000;0.000;2024-01-16T00:17:29;19.20;46.70
66708;DHT22;53622;0.000;0.000;2024-01-16T00:19:59;19.20;47.10
66708;DHT22;53622;0.000;0.000;2024-01-16T00:22:28;19.20;46.90
66708;DHT22;53622;0.000;0.000;2024-01-16T00:24:57;19.20;46.40
66708;DHT22;53622;0.000;0.000;2024-01-16T00:27:26;19.10;45.80
66708;DHT22;53622;0.000;0.000;2024-01-16T00:29:55;19.20;47.80
66708;DHT22;53622;0.000;0.000;2024-01-16T00:32:24;19.10;46.00
66708;DHT22;53622;0.000;0.000;2024-01-16T00:34:52;19.10;45.70
66708;DHT22;53622;0.000;0.000;2024-01-16T00:37:22;19.10;45.80
66708;DHT22;53622;0.000;0.000;2024-01-16T00:39:51;19.10;45.70
66708;DHT22;53622;0.000;0.000;2024-01-16T00:42:20;19.10;46.30
66708;DHT22;53622;0.000;0.000;2024-01-16T00:44:48;19.10;45.90
66708;DHT22;53622;0.000;0.000;2024-01-16T00:47:18;19.10;45.90
66708;DHT22;53622;0.000;0.000;2024-01-16T00:49:46;19.10;45.90
66708;DHT22;53622;0.000;0.000;2024-01-16T00:52:15;19.10;45.70
66708;DHT22;53622;0.000;0.000;2024-01-16T00:54:46;19.00;45.70
66708;DHT22;53622;0.000;0.000;2024-01-16T00:57:16;19.00;45.70
66708;DHT22;53622;0.000;0.000;2024-01-16T00:59:47;19.00;46.20
66708;DHT22;53622;0.000;0.000;2024-01-16T01:02:15;19.00;45.80
66708;DHT22;53622;0.000;0.000;2024-01-16T01:04:44;19.10;51.80
66708;DHT22;53622;0.000;0.000;2024-01-16T01:07:13;19.10;51.30
66708;DHT22;53622;0.000;0.000;2024-01-16T01:09:42;19.10;51.60
66708;DHT22;53622;0.000;0.000;2024-01-16T01:12:12;19.00;51.40
66708;DHT22;53622;0.000;0.000;2024-01-16T01:14:41;19.00;51.10
66708;DHT22;53622;0.000;0.000;2024-01-16T01:17:10;19.00;50.90
66708;DHT22;53622;0.000;0.000;2024-01-16T01:19:39;18.90;51.10
66708;DHT22;53622;0.000;0.000;2024-01-16T01:22:08;18.90;51.20
66708;DHT22;53622;0.000;0.000;2024-01-16T01:24:36;18.90;51.40
66708;DHT22;53622;0.000;0.000;2024-01-16T01:27:05;18.90;51.30
66708;DHT22;53622;0.000;0.000;2024-01-16T01:29:35;18.90;51.30
66708;DHT22;53622;0.000;0.000;2024-01-16T01:32:04;18.90;51.30
66708;DHT22;53622;0.000;0.000;2024-01-16T01:34:33;18.90;51.60
66708;DHT22;53622;0.000;0.000;2024-01-16T01:37:03;18.90;51.60
66708;DHT22;53622;0.000;0.000;2024-01-16T01:39:31;18.80;51.40
66708;DHT22;53622;0.000;0.000;2024-01-16T01:42:00;18.80;51.40
66708;DHT22;53622;0.000;0.000;2024-01-16T01:44:29;18.80;51.60
66708;DHT22;53622;0.000;0.000;2024-01-16T01:46:59;18.80;51.40
66708;DHT22;53622;0.000;0.000;2024-01-16T01:49:30;18.80;51.50
66708;DHT22;53622;0.000;0.000;2024-01-16T01:51:59;18.80;51.50
66708;DHT22;53622;0.000;0.000;2024-01-16T01:54:28;18.80;51.60
66708;DHT22;53622;0.000;0.000;2024-01-16T01:56:57;18.80;51.70
66708;DHT22;53622;0.000;0.000;2024-01-16T01:59:26;18.70;51.80
66708;DHT22;53622;0.000;0.000;2024-01-16T02:01:56;18.80;52.30
66708;DHT22;53622;0.000;0.000;2024-01-16T02:04:26;18.80;52.30
66708;DHT22;53622;0.000;0.000;2024-01-16T02:06:55;18.70;52.20
66708;DHT22;53622;0.000;0.000;2024-01-16T02:09:24;18.80;44.50
66708;DHT22;53622;0.000;0.000;2024-01-16T02:11:53;18.80;44.60
66708;DHT22;53622;0.000;0.000;2024-01-16T02:14:22;18.70;44.50
66708;DHT22;53622;0.000;0.000;2024-01-16T02:16:50;18.70;44.60
66708;DHT22;53622;0.000;0.000;2024-01-16T02:19:19;18.70;44.60
66708;DHT22;53622;0.000;0.000;2024-01-16T02:21:51;18.60;44.60
66708;DHT22;53622;0.000;0.000;2024-01-16T02:24:22;18.60;44.70
66708;DHT22;53622;0.000;0.000;2024-01-16T02:26:52;18.60;44.70
66708;DHT22;53622;0.000;0.000;2024-01-16T02:29:20;18.60;44.70
66708;DHT22;53622;0.000;0.000;2024-01-16T02:31:49;18.60;44.70
66708;DHT22;53622;0.000;0.000;2024-01-16T02:34:18;18.50;44.60
66708;DHT22;53622;0.000;0.000;2024-01-16T02:36:46;18.50;44.70
66708;DHT22;53622;0.000;0.000;2024-01-16T02:39:15;18.50;44.70
66708;DHT22;53622;0.000;0.000;2024-01-16T02:41:45;18.50;44.70
66708;DHT22;53622;0.000;0.000;2024-01-16T02:44:14;18.50;44.70
66708;DHT22;53622;0.000;0.000;2024-01-16T02:46:43;18.50;44.70
66708;DHT22;53622;0.000;0.000;2024-01-16T02:49:12;18.50;44.70
66708;DHT22;53622;0.000;0.000;2024-01-16T02:51:40;18.50;44.70
66708;DHT22;53622;0.000;0.000;2024-01-16T02:54:09;18.50;44.70
66708;DHT22;53622;0.000;0.000;2024-01-16T02:56:39;18.50;44.70
66708;DHT22;53622;0.000;0.000;2024-01-16T02:59:09;18.50;44.70
66708;DHT22;53622;0.000;0.000;2024-01-16T03:01:38;18.40;44.70
66708;DHT22;53622;0.000;0.000;2024-01-16T03:04:07;18.40;44.70
66708;DHT22;53622;0.000;0.000;2024-01-16T03:06:36;18.40;44.70
66708;DHT22;53622;0.000;0.000;2024-01-16T03:09:05;18.40;45.30
66708;DHT22;53622;0.000;0.000;2024-01-16T03:11:34;18.40;44.70
66708;DHT22;53622;0.000;0.000;2024-01-16T03:14:02;18.40;44.80
66708;DHT22;53622;0.000;0.000;2024-01-16T03:16:33;18.40;44.70
66708;DHT22;53622;0.000;0.000;2024-01-16T03:19:02;18.40;44.70
66708;DHT22;53622;0.000;0.000;2024-01-16T03:21:30;18.40;44.80
66708;DHT22;53622;0.000;0.000;2024-01-16T03:23:59;18.30;44.70
66708;DHT22;53622;0.000;0.000;2024-01-16T03:26:28;18.30;44.70
66708;DHT22;53622;0.000;0.000;2024-01-16T03:28:57;18.30;44.70
66708;DHT22;53622;0.000;0.000;2024-01-16T03:31:25;18.30;44.70
66708;DHT22;53622;0.000;0.000;2024-01-16T03:33:56;18.30;44.70
66708;DHT22;53622;0.000;0.000;2024-01-16T03:36:25;18.30;44.80
66708;DHT22;53622;0.000;0.000;2024-01-16T03:38:54;18.30;44.80
66708;DHT22;53622;0.000;0.000;2024-01-16T03:41:22;18.30;44.70
66708;DHT22;53622;0.000;0.000;2024-01-16T03:43:51;18.30;44.70
66708;DHT22;53622;0.000;0.000;2024-01-16T03:46:23;18.30;44.80
66708;DHT22;53622;0.000;0.000;2024-01-16T03:48:52;18.30;45.40
66708;DHT22;53622;0.000;0.000;2024-01-16T03:51:22;18.30;44.90
66708;DHT22;53622;0.000;0.000;2024-01-16T03:53:51;18.20;44.80
66708;DHT22;53622;0.000;0.000;2024-01-16T03:56:20;18.20;44.80
66708;DHT22;53622;0.000;0.000;2024-01-16T03:58:49;18.20;44.80
66708;DHT22;53622;0.000;0.000;2024-01-16T04:01:17;18.20;44.90
66708;DHT22;53622;0.000;0.000;2024-01-16T04:03:46;18.20;44.90
66708;DHT22;53622;0.000;0.000;2024-01-16T04:06:16;18.20;44.80
66708;DHT22;53622;0.000;0.000;2024-01-16T04:08:46;18.20;44.90
66708;DHT22;53622;0.000;0.000;2024-01-16T04:11:15;18.20;44.90
66708;DHT22;53622;0.000;0.000;2024-01-16T04:13:44;18.20;44.80
66708;DHT22;53622;0.000;0.000;2024-01-16T04:16:13;18.20;52.90
66708;DHT22;53622;0.000;0.000;2024-01-16T04:18:43;18.20;53.50
66708;DHT22;53622;0.000;0.000;2024-01-16T04:21:12;18.20;53.70
66708;DHT22;53622;0.000;0.000;2024-01-16T04:23:46;18.20;53.40
66708;DHT22;53622;0.000;0.000;2024-01-16T04:26:15;18.20;53.80
66708;DHT22;53622;0.000;0.000;2024-01-16T04:28:44;18.10;53.70
66708;DHT22;53622;0.000;0.000;2024-01-16T04:31:12;18.10;54.20
66708;DHT22;53622;0.000;0.000;2024-01-16T04:33:41;18.10;54.90
66708;DHT22;53622;0.000;0.000;2024-01-16T04:36:10;18.10;53.80
66708;DHT22;53622;0.000;0.000;2024-01-16T04:38:38;18.10;54.10
66708;DHT22;53622;0.000;0.000;2024-01-16T04:41:08;18.10;54.70
66708;DHT22;53622;0.000;0.000;2024-01-16T04:43:37;18.10;54.10
66708;DHT22;53622;0.000;0.000;2024-01-16T04:46:06;18.10;53.90
66708;DHT22;53622;0.000;0.000;2024-01-16T04:48:34;18.00;54.00
66708;DHT22;53622;0.000;0.000;2024-01-16T04:51:04;18.10;54.10
66708;DHT22;53622;0.000;0.000;2024-01-16T04:53:32;18.00;54.00
66708;DHT22;53622;0.000;0.000;2024-01-16T04:56:01;18.00;54.10
66708;DHT22;53622;0.000;0.000;2024-01-16T04:58:31;18.00;54.90
66708;DHT22;53622;0.000;0.000;2024-01-16T05:01:01;18.00;53.90
66708;DHT22;53622;0.000;0.000;2024-01-16T05:03:30;18.00;53.70
66708;DHT22;53622;0.000;0.000;2024-01-16T05:05:58;18.00;53.80
66708;DHT22;53622;0.000;0.000;2024-01-16T05:08:28;18.00;53.80
66708;DHT22;53622;0.000;0.000;2024-01-16T05:10:58;18.00;53.80
66708;DHT22;53622;0.000;0.000;2024-01-16T05:13:26;18.00;54.10
66708;DHT22;53622;0.000;0.000;2024-01-16T05:15:56;18.10;53.90
66708;DHT22;53622;0.000;0.000;2024-01-16T05:18:25;18.10;54.00
66708;DHT22;53622;0.000;0.000;2024-01-16T05:20:54;18.10;53.40
66708;DHT22;53622;0.000;0.000;2024-01-16T05:23:26;18.10;52.60
66708;DHT22;53622;0.000;0.000;2024-01-16T05:25:54;18.10;52.60
66708;DHT22;53622;0.000;0.000;2024-01-16T05:28:23;18.10;52.80
66708;DHT22;53622;0.000;0.000;2024-01-16T05:30:52;18.10;52.80
66708;DHT22;53622;0.000;0.000;2024-01-16T05:33:22;18.00;52.80
66708;DHT22;53622;0.000;0.000;2024-01-16T05:35:51;18.00;53.40
66708;DHT22;53622;0.000;0.000;2024-01-16T05:38:20;18.00;53.00
66708;DHT22;53622;0.000;0.000;2024-01-16T05:40:48;18.00;52.80
66708;DHT22;53622;0.000;0.000;2024-01-16T05:43:17;18.00;52.80
66708;DHT22;53622;0.000;0.000;2024-01-16T05:45:46;18.10;52.90
66708;DHT22;53622;0.000;0.000;2024-01-16T05:48:15;18.10;53.10
66708;DHT22;53622;0.000;0.000;2024-01-16T05:50:45;18.20;52.90
66708;DHT22;53622;0.000;0.000;2024-01-16T05:53:14;18.30;52.90
66708;DHT22;53622;0.000;0.000;2024-01-16T05:55:43;18.40;52.80
66708;DHT22;53622;0.000;0.000;2024-01-16T05:58:12;18.50;52.80
66708;DHT22;53622;0.000;0.000;2024-01-16T06:00:41;18.50;53.10
66708;DHT22;53622;0.000;0.000;2024-01-16T06:03:10;18.60;52.90
66708;DHT22;53622;0.000;0.000;2024-01-16T06:05:39;18.70;52.90
66708;DHT22;53622;0.000;0.000;2024-01-16T06:08:09;18.70;52.80
66708;DHT22;53622;0.000;0.000;2024-01-16T06:10:38;18.70;53.10
66708;DHT22;53622;0.000;0.000;2024-01-16T06:13:06;18.90;54.00
66708;DHT22;53622;0.000;0.000;2024-01-16T06:15:35;18.90;54.60
66708;DHT22;53622;0.000;0.000;2024-01-16T06:18:04;19.00;54.40
66708;DHT22;53622;0.000;0.000;2024-01-16T06:20:33;19.10;55.70
66708;DHT22;53622;0.000;0.000;2024-01-16T06:23:02;19.10;55.30
66708;DHT22;53622;0.000;0.000;2024-01-16T06:25:32;19.20;55.60
66708;DHT22;53622;0.000;0.000;2024-01-16T06:28:00;19.30;54.80
66708;DHT22;53622;0.000;0.000;2024-01-16T06:30:30;19.40;55.20
66708;DHT22;53622;0.000;0.000;2024-01-16T06:32:59;19.40;54.60
66708;DHT22;53622;0.000;0.000;2024-01-16T06:35:28;19.50;54.80
66708;DHT22;53622;0.000;0.000;2024-01-16T06:37:57;19.50;54.50
66708;DHT22;53622;0.000;0.000;2024-01-16T06:40:26;19.50;54.70
66708;DHT22;53622;0.000;0.000;2024-01-16T06:42:56;19.50;54.40
66708;DHT22;53622;0.000;0.000;2024-01-16T06:45:24;19.60;54.30
66708;DHT22;53622;0.000;0.000;2024-01-16T06:47:53;19.60;54.50
66708;DHT22;53622;0.000;0.000;2024-01-16T06:50:22;19.60;54.40
66708;DHT22;53622;0.000;0.000;2024-01-16T06:52:51;19.70;54.60
66708;DHT22;53622;0.000;0.000;2024-01-16T06:55:20;19.60;54.20
66708;DHT22;53622;0.000;0.000;2024-01-16T06:57:48;19.70;54.60
66708;DHT22;53622;0.000;0.000;2024-01-16T07:00:20;19.70;54.10
66708;DHT22;53622;0.000;0.000;2024-01-16T07:02:50;19.70;54.50
66708;DHT22;53622;0.000;0.000;2024-01-16T07:05:18;19.70;54.70
66708;DHT22;53622;0.000;0.000;2024-01-16T07:07:47;19.70;54.30
66708;DHT22;53622;0.000;0.000;2024-01-16T07:10:16;19.70;53.50
66708;DHT22;53622;0.000;0.000;2024-01-16T07:12:46;19.70;53.10
66708;DHT22;53622;0.000;0.000;2024-01-16T07:15:16;19.70;52.90
66708;DHT22;53622;0.000;0.000;2024-01-16T07:17:47;19.70;51.10
66708;DHT22;53622;0.000;0.000;2024-01-16T07:20:15;19.80;51.00
66708;DHT22;53622;0.000;0.000;2024-01-16T07:22:44;19.70;50.80
66708;DHT22;53622;0.000;0.000;2024-01-16T07:25:13;19.80;50.90
66708;DHT22;53622;0.000;0.000;2024-01-16T07:27:42;19.80;50.80
66708;DHT22;53622;0.000;0.000;2024-01-16T07:30:14;19.90;44.80
66708;DHT22;53622;0.000;0.000;2024-01-16T07:32:43;20.00;44.50
66708;DHT22;53622;0.000;0.000;2024-01-16T07:35:14;20.00;44.30
66708;DHT22;53622;0.000;0.000;2024-01-16T07:37:43;19.90;44.10
66708;DHT22;53622;0.000;0.000;2024-01-16T07:40:11;19.90;44.00
66708;DHT22;53622;0.000;0.000;2024-01-16T07:42:40;19.90;44.20
66708;DHT22;53622;0.000;0.000;2024-01-16T07:45:09;20.00;44.70
66708;DHT22;53622;0.000;0.000;2024-01-16T07:47:38;19.90;44.60
66708;DHT22;53622;0.000;0.000;2024-01-16T07:50:07;19.90;44.60
66708;DHT22;53622;0.000;0.000;2024-01-16T07:52:37;19.90;44.50
66708;DHT22;53622;0.000;0.000;2024-01-16T07:55:06;19.90;44.40
66708;DHT22;53622;0.000;0.000;2024-01-16T07:57:35;19.90;44.40
66708;DHT22;53622;0.000;0.000;2024-01-16T08:00:04;19.90;44.60
66708;DHT22;53622;0.000;0.000;2024-01-16T08:02:39;20.00;44.50
66708;DHT22;53622;0.000;0.000;2024-01-16T08:05:09;19.90;44.50
66708;DHT22;53622;0.000;0.000;2024-01-16T08:07:42;19.90;44.20
66708;DHT22;53622;0.000;0.000;2024-01-16T08:10:11;20.00;44.40
66708;DHT22;53622;0.000;0.000;2024-01-16T08:12:43;20.00;44.20
66708;DHT22;53622;0.000;0.000;2024-01-16T08:15:12;20.00;44.40
66708;DHT22;53622;0.000;0.000;2024-01-16T08:17:40;20.00;44.20
66708;DHT22;53622;0.000;0.000;2024-01-16T08:20:11;20.10;44.30
66708;DHT22;53622;0.000;0.000;2024-01-16T08:22:42;20.00;44.20
66708;DHT22;53622;0.000;0.000;2024-01-16T08:25:10;20.10;44.20
66708;DHT22;53622;0.000;0.000;2024-01-16T08:27:39;20.10;44.50
66708;DHT22;53622;0.000;0.000;2024-01-16T08:30:09;20.10;44.50
66708;DHT22;53622;0.000;0.000;2024-01-16T08:32:40;20.10;44.50
66708;DHT22;53622;0.000;0.000;2024-01-16T08:35:09;20.10;44.40
66708;DHT22;53622;0.000;0.000;2024-01-16T08:37:37;20.20;44.00
66708;DHT22;53622;0.000;0.000;2024-01-16T08:40:09;20.20;43.70
66708;DHT22;53622;0.000;0.000;2024-01-16T08:42:39;20.10;43.60
66708;DHT22;53622;0.000;0.000;2024-01-16T08:45:08;20.10;43.60
66708;DHT22;53622;0.000;0.000;2024-01-16T08:47:37;20.10;43.80
66708;DHT22;53622;0.000;0.000;2024-01-16T08:50:06;20.00;43.50
66708;DHT22;53622;0.000;0.000;2024-01-16T08:52:36;20.00;43.80
66708;DHT22;53622;0.000;0.000;2024-01-16T08:55:05;20.00;44.20
66708;DHT22;53622;0.000;0.000;2024-01-16T08:57:36;20.00;44.40
66708;DHT22;53622;0.000;0.000;2024-01-16T09:00:06;20.00;44.10
66708;DHT22;53622;0.000;0.000;2024-01-16T09:02:36;19.90;44.90
66708;DHT22;53622;0.000;0.000;2024-01-16T09:05:05;20.00;45.60
66708;DHT22;53622;0.000;0.000;2024-01-16T09:07:34;20.00;44.60
66708;DHT22;53622;0.000;0.000;2024-01-16T09:10:03;20.00;44.40
66708;DHT22;53622;0.000;0.000;2024-01-16T09:12:32;20.10;44.30
66708;DHT22;53622;0.000;0.000;2024-01-16T09:15:02;20.10;44.30
66708;DHT22;53622;0.000;0.000;2024-01-16T09:17:32;20.20;44.20
66708;DHT22;53622;0.000;0.000;2024-01-16T09:20:01;20.20;44.10
66708;DHT22;53622;0.000;0.000;2024-01-16T09:22:30;20.30;44.10
66708;DHT22;53622;0.000;0.000;2024-01-16T09:24:59;20.30;44.00
66708;DHT22;53622;0.000;0.000;2024-01-16T09:27:28;20.30;44.00
66708;DHT22;53622;0.000;0.000;2024-01-16T09:29:57;20.40;43.80
66708;DHT22;53622;0.000;0.000;2024-01-16T09:32:27;20.40;43.90
66708;DHT22;53622;0.000;0.000;2024-01-16T09:34:56;20.40;44.20
66708;DHT22;53622;0.000;0.000;2024-01-16T09:37:25;20.50;45.80
66708;DHT22;53622;0.000;0.000;2024-01-16T09:39:54;20.50;43.90
66708;DHT22;53622;0.000;0.000;2024-01-16T09:42:23;20.50;43.80
66708;DHT22;53622;0.000;0.000;2024-01-16T09:44:55;20.50;43.80
66708;DHT22;53622;0.000;0.000;2024-01-16T09:47:26;20.50;43.80
66708;DHT22;53622;0.000;0.000;2024-01-16T09:49:57;20.50;43.80
66708;DHT22;53622;0.000;0.000;2024-01-16T09:52:26;20.50;43.80
66708;DHT22;53622;0.000;0.000;2024-01-16T09:54:55;20.50;43.70
66708;DHT22;53622;0.000;0.000;2024-01-16T09:57:25;20.50;43.70
66708;DHT22;53622;0.000;0.000;2024-01-16T09:59:55;20.50;43.30
66708;DHT22;53622;0.000;0.000;2024-01-16T10:02:26;20.50;43.00
66708;DHT22;53622;0.000;0.000;2024-01-16T10:04:56;20.50;43.30
66708;DHT22;53622;0.000;0.000;2024-01-16T10:07:25;20.50;43.40
66708;DHT22;53622;0.000;0.000;2024-01-16T10:09:56;20.50;43.60
66708;DHT22;53622;0.000;0.000;2024-01-16T10:12:25;20.50;43.80
66708;DHT22;53622;0.000;0.000;2024-01-16T10:14:55;20.50;43.60
66708;DHT22;53622;0.000;0.000;2024-01-16T10:17:37;20.50;43.80
66708;DHT22;53622;0.000;0.000;2024-01-16T10:20:07;20.50;43.70
66708;DHT22;53622;0.000;0.000;2024-01-16T10:22:41;20.50;43.80
66708;DHT22;53622;0.000;0.000;2024-01-16T10:25:12;20.60;43.70
66708;DHT22;53622;0.000;0.000;2024-01-16T10:27:45;20.60;43.60
66708;DHT22;53622;0.000;0.000;2024-01-16T10:30:13;20.60;43.80
66708;DHT22;53622;0.000;0.000;2024-01-16T10:32:44;20.60;43.60
66708;DHT22;53622;0.000;0.000;2024-01-16T10:35:13;20.60;43.40
66708;DHT22;53622;0.000;0.000;2024-01-16T10:37:47;20.60;43.10
66708;DHT22;53622;0.000;0.000;2024-01-16T10:40:16;20.60;43.10
66708;DHT22;53622;0.000;0.000;2024-01-16T10:42:58;20.70;43.30
66708;DHT22;53622;0.000;0.000;2024-01-16T10:45:27;20.70;43.10
66708;DHT22;53622;0.000;0.000;2024-01-16T10:48:05;20.70;43.20
66708;DHT22;53622;0.000;0.000;2024-01-16T10:50:36;20.70;43.30
66708;DHT22;53622;0.000;0.000;2024-01-16T10:53:07;20.60;44.00
66708;DHT22;53622;0.000;0.000;2024-01-16T10:55:50;20.60;43.50
66708;DHT22;53622;0.000;0.000;2024-01-16T10:58:22;20.80;58.90
66708;DHT22;53622;0.000;0.000;2024-01-16T11:00:52;20.70;43.40
66708;DHT22;53622;0.000;0.000;2024-01-16T11:03:27;20.70;43.40
66708;DHT22;53622;0.000;0.000;2024-01-16T11:05:58;20.70;43.30
66708;DHT22;53622;0.000;0.000;2024-01-16T11:08:28;20.60;43.30
66708;DHT22;53622;0.000;0.000;2024-01-16T11:11:02;20.70;43.30
66708;DHT22;53622;0.000;0.000;2024-01-16T11:13:33;20.70;43.30
66708;DHT22;53622;0.000;0.000;2024-01-16T11:16:03;20.70;43.20
66708;DHT22;53622;0.000;0.000;2024-01-16T11:18:34;20.70;43.20
66708;DHT22;53622;0.000;0.000;2024-01-16T11:21:06;20.70;43.10
66708;DHT22;53622;0.000;0.000;2024-01-16T11:23:40;20.70;43.20
66708;DHT22;53622;0.000;0.000;2024-01-16T11:26:25;20.70;43.20
66708;DHT22;53622;0.000;0.000;2024-01-16T11:28:54;20.80;43.20
66708;DHT22;53622;0.000;0.000;2024-01-16T11:31:31;20.80;43.20
66708;DHT22;53622;0.000;0.000;2024-01-16T11:34:02;20.80;43.20
66708;DHT22;53622;0.000;0.000;2024-01-16T11:36:49;20.80;43.20
66708;DHT22;53622;0.000;0.000;2024-01-16T11:39:21;20.80;43.20
66708;DHT22;53622;0.000;0.000;2024-01-16T11:41:54;20.80;43.20
66708;DHT22;53622;0.000;0.000;2024-01-16T11:44:43;20.80;43.10
66708;DHT22;53622;0.000;0.000;2024-01-16T11:47:18;20.90;43.00
66708;DHT22;53622;0.000;0.000;2024-01-16T11:49:51;20.90;42.90
66708;DHT22;53622;0.000;0.000;2024-01-16T11:52:39;20.90;42.90
66708;DHT22;53622;0.000;0.000;2024-01-16T11:55:25;20.90;43.00
66708;DHT22;53622;0.000;0.000;2024-01-16T11:58:09;20.90;42.90
66708;DHT22;53622;0.000;0.000;2024-01-16T12:00:45;20.90;42.60
66708;DHT22;53622;0.000;0.000;2024-01-16T12:03:14;20.90;42.70
66708;DHT22;53622;0.000;0.000;2024-01-16T12:06:03;20.90;43.40
66708;DHT22;53622;0.000;0.000;2024-01-16T12:11:05;21.00;80.00
66708;DHT22;53622;0.000;0.000;2024-01-16T12:13:34;20.90;42.30
66708;DHT22;53622;0.000;0.000;2024-01-16T12:16:03;20.80;69.00
66708;DHT22;53622;0.000;0.000;2024-01-16T12:21:12;20.70;79.90
66708;DHT22;53622;0.000;0.000;2024-01-16T12:23:43;20.70;61.70
66708;DHT22;53622;0.000;0.000;2024-01-16T12:26:26;20.50;53.80
66708;DHT22;53622;0.000;0.000;2024-01-16T12:28:55;20.50;73.90
66708;DHT22;53622;0.000;0.000;2024-01-16T12:31:27;20.50;83.90
66708;DHT22;53622;0.000;0.000;2024-01-16T12:34:05;20.80;54.40
66708;DHT22;53622;0.000;0.000;2024-01-16T12:36:37;20.80;60.00
66708;DHT22;53622;0.000;0.000;2024-01-16T12:39:06;20.90;55.70
66708;DHT22;53622;0.000;0.000;2024-01-16T12:41:42;21.00;82.70
66708;DHT22;53622;0.000;0.000;2024-01-16T12:44:12;20.90;82.90
66708;DHT22;53622;0.000;0.000;2024-01-16T12:46:46;21.00;49.90
66708;DHT22;53622;0.000;0.000;2024-01-16T12:49:22;20.90;85.40
66708;DHT22;53622;0.000;0.000;2024-01-16T12:52:19;21.10;42.90
66708;DHT22;53622;0.000;0.000;2024-01-16T12:54:58;21.10;42.90
66708;DHT22;53622;0.000;0.000;2024-01-16T12:57:27;21.10;42.80
66708;DHT22;53622;0.000;0.000;2024-01-16T12:59:56;21.10;42.80
66708;DHT22;53622;0.000;0.000;2024-01-16T13:02:28;21.10;42.70
66708;DHT22;53622;0.000;0.000;2024-01-16T13:04:58;21.20;42.80
66708;DHT22;53622;0.000;0.000;2024-01-16T13:07:29;21.20;42.70
66708;DHT22;53622;0.000;0.000;2024-01-16T13:10:08;21.20;42.40
66708;DHT22;53622;0.000;0.000;2024-01-16T13:12:37;21.20;42.30
66708;DHT22;53622;0.000;0.000;2024-01-16T13:15:06;21.30;42.00
66708;DHT22;53622;0.000;0.000;2024-01-16T13:17:35;21.20;42.20
66708;DHT22;53622;0.000;0.000;2024-01-16T13:20:05;21.20;42.40
66708;DHT22;53622;0.000;0.000;2024-01-16T13:22:39;21.10;42.60
66708;DHT22;53622;0.000;0.000;2024-01-16T13:25:14;21.10;42.70
66708;DHT22;53622;0.000;0.000;2024-01-16T13:27:43;21.10;42.70
66708;DHT22;53622;0.000;0.000;2024-01-16T13:30:12;21.10;42.80
66708;DHT22;53622;0.000;0.000;2024-01-16T13:32:42;21.10;53.30
66708;DHT22;53622;0.000;0.000;2024-01-16T13:35:11;21.20;42.80
66708;DHT22;53622;0.000;0.000;2024-01-16T13:37:41;21.20;42.90
66708;DHT22;53622;0.000;0.000;2024-01-16T13:40:10;21.10;42.90
66708;DHT22;53622;0.000;0.000;2024-01-16T13:42:43;21.20;43.00
66708;DHT22;53622;0.000;0.000;2024-01-16T13:45:11;21.20;42.90
66708;DHT22;53622;0.000;0.000;2024-01-16T13:47:41;21.20;42.90
66708;DHT22;53622;0.000;0.000;2024-01-16T13:50:10;21.20;42.80
66708;DHT22;53622;0.000;0.000;2024-01-16T13:52:41;21.30;42.80
66708;DHT22;53622;0.000;0.000;2024-01-16T13:55:11;21.40;42.70
66708;DHT22;53622;0.000;0.000;2024-01-16T13:57:39;21.40;42.60
66708;DHT22;53622;0.000;0.000;2024-01-16T14:00:10;21.40;42.60
66708;DHT22;53622;0.000;0.000;2024-01-16T14:02:42;21.40;42.70
66708;DHT22;53622;0.000;0.000;2024-01-16T14:05:11;21.40;42.70
66708;DHT22;53622;0.000;0.000;2024-01-16T14:07:44;21.40;42.80
66708;DHT22;53622;0.000;0.000;2024-01-16T14:10:14;21.40;42.80
66708;DHT22;53622;0.000;0.000;2024-01-16T14:12:44;21.40;42.80
66708;DHT22;53622;0.000;0.000;2024-01-16T14:15:14;21.40;42.80
66708;DHT22;53622;0.000;0.000;2024-01-16T14:17:48;21.40;42.80
66708;DHT22;53622;0.000;0.000;2024-01-16T14:20:18;21.40;42.80
66708;DHT22;53622;0.000;0.000;2024-01-16T14:22:56;21.40;42.80
66708;DHT22;53622;0.000;0.000;2024-01-16T14:25:25;21.40;42.80
66708;DHT22;53622;0.000;0.000;2024-01-16T14:27:59;21.40;42.80
66708;DHT22;53622;0.000;0.000;2024-01-16T14:30:31;21.40;42.80
66708;DHT22;53622;0.000;0.000;2024-01-16T14:33:01;21.40;42.80
66708;DHT22;53622;0.000;0.000;2024-01-16T14:35:30;21.40;42.80
66708;DHT22;53622;0.000;0.000;2024-01-16T14:38:00;21.40;42.80
66708;DHT22;53622;0.000;0.000;2024-01-16T14:40:29;21.40;42.80
66708;DHT22;53622;0.000;0.000;2024-01-16T14:42:58;21.30;42.60
66708;DHT22;53622;0.000;0.000;2024-01-16T14:45:31;21.30;42.50
66708;DHT22;53622;0.000;0.000;2024-01-16T14:48:00;21.30;42.60
66708;DHT22;53622;0.000;0.000;2024-01-16T14:50:31;21.30;42.60
66708;DHT22;53622;0.000;0.000;2024-01-16T14:53:02;21.30;42.60
66708;DHT22;53622;0.000;0.000;2024-01-16T14:55:33;21.30;42.70
66708;DHT22;53622;0.000;0.000;2024-01-16T14:58:02;21.20;42.60
66708;DHT22;53622;0.000;0.000;2024-01-16T15:00:31;21.20;42.60
66708;DHT22;53622;0.000;0.000;2024-01-16T15:03:00;21.20;42.60
66708;DHT22;53622;0.000;0.000;2024-01-16T15:05:30;21.20;42.60
66708;DHT22;53622;0.000;0.000;2024-01-16T15:07:58;21.20;42.60
66708;DHT22;53622;0.000;0.000;2024-01-16T15:10:29;21.20;43.20
66708;DHT22;53622;0.000;0.000;2024-01-16T15:12:58;21.20;42.60
66708;DHT22;53622;0.000;0.000;2024-01-16T15:15:27;21.20;42.70
66708;DHT22;53622;0.000;0.000;2024-01-16T15:17:56;21.20;42.70
66708;DHT22;53622;0.000;0.000;2024-01-16T15:20:25;21.20;42.80
66708;DHT22;53622;0.000;0.000;2024-01-16T15:22:53;21.20;42.70
66708;DHT22;53622;0.000;0.000;2024-01-16T15:25:23;21.20;42.80
66708;DHT22;53622;0.000;0.000;2024-01-16T15:27:54;21.10;42.50
66708;DHT22;53622;0.000;0.000;2024-01-16T15:30:23;21.20;42.50
66708;DHT22;53622;0.000;0.000;2024-01-16T15:32:55;21.20;42.70
66708;DHT22;53622;0.000;0.000;2024-01-16T15:35:24;21.10;43.00
66708;DHT22;53622;0.000;0.000;2024-01-16T15:37:53;21.10;43.10
66708;DHT22;53622;0.000;0.000;2024-01-16T15:40:22;21.10;43.20
66708;DHT22;53622;0.000;0.000;2024-01-16T15:42:51;21.00;43.20
66708;DHT22;53622;0.000;0.000;2024-01-16T15:45:23;21.00;43.30
66708;DHT22;53622;0.000;0.000;2024-01-16T15:47:54;21.00;43.30
66708;DHT22;53622;0.000;0.000;2024-01-16T15:50:23;21.00;43.20
66708;DHT22;53622;0.000;0.000;2024-01-16T15:52:54;21.00;43.30
66708;DHT22;53622;0.000;0.000;2024-01-16T15:55:22;21.00;42.80
66708;DHT22;53622;0.000;0.000;2024-01-16T15:57:51;20.90;42.60
66708;DHT22;53622;0.000;0.000;2024-01-16T16:00:23;20.80;42.60
66708;DHT22;53622;0.000;0.000;2024-01-16T16:02:51;20.90;42.90
66708;DHT22;53622;0.000;0.000;2024-01-16T16:05:20;20.90;42.80
66708;DHT22;53622;0.000;0.000;2024-01-16T16:07:49;20.90;42.90